sensor_id;sensor_type;location;lat;lon;timestamp;P1;durP1;ratioP1;P2;durP2;ratioP2
40847;SDS011;26570;50.962;5.340;2023-04-06T00:02:59;34.33;;;18.67;;
40847;SDS011;26570;50.962;5.340;2023-04-06T00:05:46;34.10;;;18.93;;
40847;SDS011;26570;50.962;5.340;2023-04-06T00:08:31;33.97;;;18.93;;
40847;SDS011;26570;50.962;5.340;2023-04-06T00:11:17;38.63;;;19.13;;
40847;SDS011;26570;50.962;5.340;2023-04-06T00:14:25;33.40;;;18.67;;
40847;SDS011;26570;50.962;5.340;2023-04-06T00:17:10;34.13;;;18.73;;
40847;SDS011;26570;50.962;5.340;2023-04-06T00:19:55;43.80;;;22.17;;
40847;SDS011;26570;50.962;5.340;2023-04-06T00:22:40;35.73;;;21.77;;
40847;SDS011;26570;50.962;5.340;2023-04-06T00:25:26;35.63;;;21.07;;
40847;SDS011;26570;50.962;5.340;2023-04-06T00:28:12;38.50;;;21.10;;
40847;SDS011;26570;50.962;5.340;2023-04-06T00:31:20;34.30;;;19.37;;
40847;SDS011;26570;50.962;5.340;2023-04-06T00:34:05;30.00;;;18.30;;
40847;SDS011;26570;50.962;5.340;2023-04-06T00:36:51;30.53;;;17.33;;
40847;SDS011;26570;50.962;5.340;2023-04-06T00:39:37;34.63;;;17.93;;
40847;SDS011;26570;50.962;5.340;2023-04-06T00:42:22;33.43;;;18.77;;
40847;SDS011;26570;50.962;5.340;2023-04-06T00:45:11;35.63;;;19.40;;
40847;SDS011;26570;50.962;5.340;2023-04-06T00:47:57;32.63;;;19.87;;
40847;SDS011;26570;50.962;5.340;2023-04-06T00:50:42;38.27;;;19.70;;
40847;SDS011;26570;50.962;5.340;2023-04-06T00:53:50;38.13;;;20.07;;
40847;SDS011;26570;50.962;5.340;2023-04-06T00:56:35;35.43;;;20.50;;
40847;SDS011;26570;50.962;5.340;2023-04-06T00:59:44;35.57;;;19.63;;
40847;SDS011;26570;50.962;5.340;2023-04-06T01:02:30;37.77;;;20.40;;
40847;SDS011;26570;50.962;5.340;2023-04-06T01:05:15;34.13;;;20.37;;
40847;SDS011;26570;50.962;5.340;2023-04-06T01:08:01;32.00;;;19.10;;
40847;SDS011;26570;50.962;5.340;2023-04-06T01:11:10;39.23;;;20.53;;
40847;SDS011;26570;50.962;5.340;2023-04-06T01:13:56;35.67;;;20.33;;
40847;SDS011;26570;50.962;5.340;2023-04-06T01:16:41;36.03;;;20.53;;
40847;SDS011;26570;50.962;5.340;2023-04-06T01:19:27;39.93;;;22.40;;
40847;SDS011;26570;50.962;5.340;2023-04-06T01:22:15;39.60;;;22.30;;
40847;SDS011;26570;50.962;5.340;2023-04-06T01:25:01;44.87;;;23.37;;
40847;SDS011;26570;50.962;5.340;2023-04-06T01:27:47;37.27;;;21.97;;
40847;SDS011;26570;50.962;5.340;2023-04-06T01:30:32;47.50;;;24.30;;
40847;SDS011;26570;50.962;5.340;2023-04-06T01:33:18;38.00;;;22.80;;
40847;SDS011;26570;50.962;5.340;2023-04-06T01:36:04;42.93;;;21.93;;
40847;SDS011;26570;50.962;5.340;2023-04-06T01:38:50;39.37;;;22.90;;
40847;SDS011;26570;50.962;5.340;2023-04-06T01:41:39;43.00;;;20.83;;
40847;SDS011;26570;50.962;5.340;2023-04-06T01:44:46;38.27;;;21.83;;
40847;SDS011;26570;50.962;5.340;2023-04-06T01:47:32;41.97;;;23.67;;
40847;SDS011;26570;50.962;5.340;2023-04-06T01:50:39;40.60;;;21.70;;
40847;SDS011;26570;50.962;5.340;2023-04-06T01:53:25;44.67;;;23.10;;
40847;SDS011;26570;50.962;5.340;2023-04-06T01:56:10;47.87;;;24.80;;
40847;SDS011;26570;50.962;5.340;2023-04-06T01:58:56;46.77;;;24.57;;
40847;SDS011;26570;50.962;5.340;2023-04-06T02:02:04;42.00;;;23.33;;
40847;SDS011;26570;50.962;5.340;2023-04-06T02:04:49;45.23;;;24.33;;
40847;SDS011;26570;50.962;5.340;2023-04-06T02:07:35;49.37;;;27.70;;
40847;SDS011;26570;50.962;5.340;2023-04-06T02:10:20;48.57;;;25.93;;
40847;SDS011;26570;50.962;5.340;2023-04-06T02:13:06;47.27;;;24.90;;
40847;SDS011;26570;50.962;5.340;2023-04-06T02:15:58;46.37;;;24.00;;
40847;SDS011;26570;50.962;5.340;2023-04-06T02:18:43;42.70;;;23.73;;
40847;SDS011;26570;50.962;5.340;2023-04-06T02:21:29;48.07;;;24.93;;
40847;SDS011;26570;50.962;5.340;2023-04-06T02:24:15;45.07;;;24.07;;
40847;SDS011;26570;50.962;5.340;2023-04-06T02:27:00;47.80;;;24.17;;
40847;SDS011;26570;50.962;5.340;2023-04-06T02:30:08;53.90;;;25.13;;
40847;SDS011;26570;50.962;5.340;2023-04-06T02:32:54;46.13;;;24.90;;
40847;SDS011;26570;50.962;5.340;2023-04-06T02:35:40;43.13;;;22.63;;
40847;SDS011;26570;50.962;5.340;2023-04-06T02:38:48;46.77;;;25.47;;
40847;SDS011;26570;50.962;5.340;2023-04-06T02:41:33;55.03;;;25.60;;
40847;SDS011;26570;50.962;5.340;2023-04-06T02:44:18;45.87;;;24.67;;
40847;SDS011;26570;50.962;5.340;2023-04-06T02:47:04;45.27;;;24.63;;
40847;SDS011;26570;50.962;5.340;2023-04-06T02:49:49;45.43;;;25.03;;
40847;SDS011;26570;50.962;5.340;2023-04-06T02:52:38;43.57;;;24.30;;
40847;SDS011;26570;50.962;5.340;2023-04-06T02:55:23;42.80;;;22.90;;
40847;SDS011;26570;50.962;5.340;2023-04-06T02:58:08;46.23;;;23.73;;
40847;SDS011;26570;50.962;5.340;2023-04-06T03:00:54;40.47;;;22.40;;
40847;SDS011;26570;50.962;5.340;2023-04-06T03:03:40;40.00;;;22.90;;
40847;SDS011;26570;50.962;5.340;2023-04-06T03:06:25;45.23;;;24.00;;
40847;SDS011;26570;50.962;5.340;2023-04-06T03:09:11;48.90;;;24.20;;
40847;SDS011;26570;50.962;5.340;2023-04-06T03:12:24;41.13;;;22.93;;
40847;SDS011;26570;50.962;5.340;2023-04-06T03:15:09;41.83;;;22.93;;
40847;SDS011;26570;50.962;5.340;2023-04-06T03:18:23;41.97;;;22.67;;
40847;SDS011;26570;50.962;5.340;2023-04-06T03:21:09;45.00;;;24.00;;
40847;SDS011;26570;50.962;5.340;2023-04-06T03:23:55;47.57;;;23.97;;
40847;SDS011;26570;50.962;5.340;2023-04-06T03:27:02;44.47;;;23.80;;
40847;SDS011;26570;50.962;5.340;2023-04-06T03:30:10;41.30;;;23.17;;
40847;SDS011;26570;50.962;5.340;2023-04-06T03:33:18;41.50;;;22.40;;
40847;SDS011;26570;50.962;5.340;2023-04-06T03:36:04;37.87;;;21.67;;
40847;SDS011;26570;50.962;5.340;2023-04-06T03:39:13;42.43;;;20.67;;
40847;SDS011;26570;50.962;5.340;2023-04-06T03:41:59;42.10;;;22.80;;
40847;SDS011;26570;50.962;5.340;2023-04-06T03:44:44;40.13;;;21.30;;
40847;SDS011;26570;50.962;5.340;2023-04-06T03:47:30;37.43;;;20.43;;
40847;SDS011;26570;50.962;5.340;2023-04-06T03:50:15;34.70;;;19.37;;
40847;SDS011;26570;50.962;5.340;2023-04-06T03:53:00;37.23;;;20.80;;
40847;SDS011;26570;50.962;5.340;2023-04-06T03:55:48;34.47;;;19.63;;
40847;SDS011;26570;50.962;5.340;2023-04-06T03:58:33;31.83;;;18.57;;
40847;SDS011;26570;50.962;5.340;2023-04-06T04:01:20;41.43;;;20.93;;
40847;SDS011;26570;50.962;5.340;2023-04-06T04:04:06;34.47;;;19.33;;
40847;SDS011;26570;50.962;5.340;2023-04-06T04:06:51;36.20;;;19.27;;
40847;SDS011;26570;50.962;5.340;2023-04-06T04:09:59;35.50;;;18.97;;
40847;SDS011;26570;50.962;5.340;2023-04-06T04:12:45;31.73;;;19.87;;
40847;SDS011;26570;50.962;5.340;2023-04-06T04:15:30;34.90;;;19.87;;
40847;SDS011;26570;50.962;5.340;2023-04-06T04:18:38;34.00;;;19.37;;
40847;SDS011;26570;50.962;5.340;2023-04-06T04:21:23;41.03;;;20.80;;
40847;SDS011;26570;50.962;5.340;2023-04-06T04:24:10;36.27;;;18.87;;
40847;SDS011;26570;50.962;5.340;2023-04-06T04:27:23;32.13;;;18.90;;
40847;SDS011;26570;50.962;5.340;2023-04-06T04:30:31;38.30;;;18.77;;
40847;SDS011;26570;50.962;5.340;2023-04-06T04:33:17;34.60;;;19.63;;
40847;SDS011;26570;50.962;5.340;2023-04-06T04:36:02;38.20;;;18.83;;
40847;SDS011;26570;50.962;5.340;2023-04-06T04:39:10;31.60;;;18.50;;
40847;SDS011;26570;50.962;5.340;2023-04-06T04:42:18;33.00;;;18.23;;
40847;SDS011;26570;50.962;5.340;2023-04-06T04:45:26;37.10;;;17.97;;
40847;SDS011;26570;50.962;5.340;2023-04-06T04:48:34;32.93;;;17.73;;
40847;SDS011;26570;50.962;5.340;2023-04-06T04:51:19;36.70;;;18.73;;
40847;SDS011;26570;50.962;5.340;2023-04-06T04:54:04;36.57;;;18.73;;
40847;SDS011;26570;50.962;5.340;2023-04-06T04:57:12;33.23;;;18.50;;
40847;SDS011;26570;50.962;5.340;2023-04-06T04:59:57;30.40;;;18.33;;
40847;SDS011;26570;50.962;5.340;2023-04-06T05:02:43;32.47;;;18.30;;
40847;SDS011;26570;50.962;5.340;2023-04-06T05:05:51;34.87;;;18.30;;
40847;SDS011;26570;50.962;5.340;2023-04-06T05:08:36;38.57;;;19.33;;
40847;SDS011;26570;50.962;5.340;2023-04-06T05:11:44;31.23;;;16.73;;
40847;SDS011;26570;50.962;5.340;2023-04-06T05:14:30;34.27;;;18.63;;
40847;SDS011;26570;50.962;5.340;2023-04-06T05:17:15;31.67;;;19.43;;
40847;SDS011;26570;50.962;5.340;2023-04-06T05:20:01;31.53;;;18.27;;
40847;SDS011;26570;50.962;5.340;2023-04-06T05:22:49;33.57;;;16.60;;
40847;SDS011;26570;50.962;5.340;2023-04-06T05:25:57;35.93;;;17.80;;
40847;SDS011;26570;50.962;5.340;2023-04-06T05:28:42;35.73;;;18.07;;
40847;SDS011;26570;50.962;5.340;2023-04-06T05:31:28;30.63;;;16.37;;
40847;SDS011;26570;50.962;5.340;2023-04-06T05:34:14;30.83;;;17.77;;
40847;SDS011;26570;50.962;5.340;2023-04-06T05:37:00;45.93;;;18.10;;
40847;SDS011;26570;50.962;5.340;2023-04-06T05:39:45;37.53;;;17.17;;
40847;SDS011;26570;50.962;5.340;2023-04-06T05:42:38;34.47;;;17.37;;
40847;SDS011;26570;50.962;5.340;2023-04-06T05:45:25;38.20;;;18.08;;
40847;SDS011;26570;50.962;5.340;2023-04-06T05:48:10;36.77;;;17.30;;
40847;SDS011;26570;50.962;5.340;2023-04-06T05:50:55;28.00;;;17.03;;
40847;SDS011;26570;50.962;5.340;2023-04-06T05:53:41;29.43;;;16.93;;
40847;SDS011;26570;50.962;5.340;2023-04-06T05:56:26;30.30;;;17.47;;
40847;SDS011;26570;50.962;5.340;2023-04-06T05:59:11;38.20;;;17.23;;
40847;SDS011;26570;50.962;5.340;2023-04-06T06:01:57;31.50;;;16.70;;
40847;SDS011;26570;50.962;5.340;2023-04-06T06:04:45;28.50;;;16.37;;
40847;SDS011;26570;50.962;5.340;2023-04-06T06:07:31;32.80;;;17.30;;
40847;SDS011;26570;50.962;5.340;2023-04-06T06:10:21;31.40;;;15.23;;
40847;SDS011;26570;50.962;5.340;2023-04-06T06:13:06;35.70;;;16.27;;
40847;SDS011;26570;50.962;5.340;2023-04-06T06:15:52;36.83;;;17.27;;
40847;SDS011;26570;50.962;5.340;2023-04-06T06:18:38;32.47;;;17.07;;
40847;SDS011;26570;50.962;5.340;2023-04-06T06:21:23;28.53;;;16.57;;
40847;SDS011;26570;50.962;5.340;2023-04-06T06:24:09;27.63;;;15.93;;
40847;SDS011;26570;50.962;5.340;2023-04-06T06:26:54;28.33;;;16.33;;
40847;SDS011;26570;50.962;5.340;2023-04-06T06:30:02;28.13;;;15.67;;
40847;SDS011;26570;50.962;5.340;2023-04-06T06:32:48;25.23;;;14.37;;
40847;SDS011;26570;50.962;5.340;2023-04-06T06:35:36;29.70;;;15.40;;
40847;SDS011;26570;50.962;5.340;2023-04-06T06:38:23;28.30;;;16.17;;
40847;SDS011;26570;50.962;5.340;2023-04-06T06:41:09;29.90;;;16.10;;
40847;SDS011;26570;50.962;5.340;2023-04-06T06:43:55;27.17;;;16.93;;
40847;SDS011;26570;50.962;5.340;2023-04-06T06:46:40;31.90;;;14.53;;
40847;SDS011;26570;50.962;5.340;2023-04-06T06:49:26;32.33;;;15.00;;
40847;SDS011;26570;50.962;5.340;2023-04-06T06:52:11;26.13;;;14.23;;
40847;SDS011;26570;50.962;5.340;2023-04-06T06:54:57;21.10;;;13.97;;
40847;SDS011;26570;50.962;5.340;2023-04-06T06:57:43;28.67;;;15.03;;
40847;SDS011;26570;50.962;5.340;2023-04-06T07:00:31;24.77;;;14.23;;
40847;SDS011;26570;50.962;5.340;2023-04-06T07:03:16;25.57;;;15.17;;
40847;SDS011;26570;50.962;5.340;2023-04-06T07:06:02;28.63;;;14.33;;
40847;SDS011;26570;50.962;5.340;2023-04-06T07:08:47;27.60;;;14.17;;
40847;SDS011;26570;50.962;5.340;2023-04-06T07:11:32;25.23;;;14.53;;
40847;SDS011;26570;50.962;5.340;2023-04-06T07:14:20;30.70;;;14.63;;
40847;SDS011;26570;50.962;5.340;2023-04-06T07:17:08;25.10;;;13.07;;
40847;SDS011;26570;50.962;5.340;2023-04-06T07:19:56;28.47;;;13.43;;
40847;SDS011;26570;50.962;5.340;2023-04-06T07:22:45;25.90;;;14.33;;
40847;SDS011;26570;50.962;5.340;2023-04-06T07:25:30;25.33;;;14.07;;
40847;SDS011;26570;50.962;5.340;2023-04-06T07:28:38;25.20;;;13.33;;
40847;SDS011;26570;50.962;5.340;2023-04-06T07:31:26;27.97;;;14.30;;
40847;SDS011;26570;50.962;5.340;2023-04-06T07:34:11;23.37;;;14.23;;
40847;SDS011;26570;50.962;5.340;2023-04-06T07:36:57;22.93;;;12.80;;
40847;SDS011;26570;50.962;5.340;2023-04-06T07:39:47;22.63;;;12.27;;
40847;SDS011;26570;50.962;5.340;2023-04-06T07:42:32;27.67;;;12.17;;
40847;SDS011;26570;50.962;5.340;2023-04-06T07:45:23;25.60;;;12.47;;
40847;SDS011;26570;50.962;5.340;2023-04-06T07:48:09;26.30;;;11.93;;
40847;SDS011;26570;50.962;5.340;2023-04-06T07:51:00;22.53;;;11.20;;
40847;SDS011;26570;50.962;5.340;2023-04-06T07:53:55;28.80;;;10.93;;
40847;SDS011;26570;50.962;5.340;2023-04-06T07:56:45;24.10;;;11.93;;
40847;SDS011;26570;50.962;5.340;2023-04-06T07:59:30;25.30;;;11.23;;
40847;SDS011;26570;50.962;5.340;2023-04-06T08:02:15;26.60;;;11.63;;
40847;SDS011;26570;50.962;5.340;2023-04-06T08:05:03;21.53;;;11.90;;
40847;SDS011;26570;50.962;5.340;2023-04-06T08:07:48;21.67;;;12.50;;
40847;SDS011;26570;50.962;5.340;2023-04-06T08:10:33;22.13;;;11.50;;
40847;SDS011;26570;50.962;5.340;2023-04-06T08:13:18;22.50;;;11.00;;
40847;SDS011;26570;50.962;5.340;2023-04-06T08:16:04;27.37;;;12.40;;
40847;SDS011;26570;50.962;5.340;2023-04-06T08:18:49;30.03;;;13.20;;
40847;SDS011;26570;50.962;5.340;2023-04-06T08:21:33;25.53;;;11.90;;
40847;SDS011;26570;50.962;5.340;2023-04-06T08:24:44;25.33;;;12.93;;
40847;SDS011;26570;50.962;5.340;2023-04-06T08:27:29;25.37;;;13.03;;
40847;SDS011;26570;50.962;5.340;2023-04-06T08:30:14;27.63;;;12.53;;
40847;SDS011;26570;50.962;5.340;2023-04-06T08:33:04;19.83;;;11.80;;
40847;SDS011;26570;50.962;5.340;2023-04-06T08:35:49;26.90;;;11.40;;
40847;SDS011;26570;50.962;5.340;2023-04-06T08:38:35;29.13;;;11.20;;
40847;SDS011;26570;50.962;5.340;2023-04-06T08:41:20;23.27;;;11.30;;
40847;SDS011;26570;50.962;5.340;2023-04-06T08:44:05;26.67;;;11.87;;
40847;SDS011;26570;50.962;5.340;2023-04-06T08:46:50;20.67;;;10.43;;
40847;SDS011;26570;50.962;5.340;2023-04-06T08:49:36;18.43;;;10.03;;
40847;SDS011;26570;50.962;5.340;2023-04-06T08:52:22;26.93;;;10.77;;
40847;SDS011;26570;50.962;5.340;2023-04-06T08:55:09;19.53;;;9.93;;
40847;SDS011;26570;50.962;5.340;2023-04-06T08:57:54;18.17;;;10.23;;
40847;SDS011;26570;50.962;5.340;2023-04-06T09:00:39;18.57;;;9.97;;
40847;SDS011;26570;50.962;5.340;2023-04-06T09:03:25;18.63;;;9.73;;
40847;SDS011;26570;50.962;5.340;2023-04-06T09:06:13;19.13;;;9.07;;
40847;SDS011;26570;50.962;5.340;2023-04-06T09:08:59;14.67;;;6.87;;
40847;SDS011;26570;50.962;5.340;2023-04-06T09:11:50;12.07;;;7.73;;
40847;SDS011;26570;50.962;5.340;2023-04-06T09:14:36;13.63;;;8.20;;
40847;SDS011;26570;50.962;5.340;2023-04-06T09:17:28;17.93;;;7.60;;
40847;SDS011;26570;50.962;5.340;2023-04-06T09:23:23;13.60;;;6.77;;
40847;SDS011;26570;50.962;5.340;2023-04-06T09:26:11;13.63;;;7.63;;
40847;SDS011;26570;50.962;5.340;2023-04-06T09:28:59;13.13;;;6.53;;
40847;SDS011;26570;50.962;5.340;2023-04-06T09:31:44;12.97;;;6.97;;
40847;SDS011;26570;50.962;5.340;2023-04-06T09:34:30;17.90;;;6.27;;
40847;SDS011;26570;50.962;5.340;2023-04-06T09:37:15;14.67;;;6.73;;
40847;SDS011;26570;50.962;5.340;2023-04-06T09:40:24;8.97;;;5.20;;
40847;SDS011;26570;50.962;5.340;2023-04-06T09:43:09;9.23;;;5.47;;
40847;SDS011;26570;50.962;5.340;2023-04-06T09:45:55;10.43;;;5.90;;
40847;SDS011;26570;50.962;5.340;2023-04-06T09:48:44;11.83;;;5.70;;
40847;SDS011;26570;50.962;5.340;2023-04-06T09:51:30;9.30;;;5.33;;
40847;SDS011;26570;50.962;5.340;2023-04-06T09:54:21;10.10;;;5.67;;
40847;SDS011;26570;50.962;5.340;2023-04-06T09:57:10;7.67;;;5.53;;
40847;SDS011;26570;50.962;5.340;2023-04-06T10:00:21;10.97;;;6.00;;
40847;SDS011;26570;50.962;5.340;2023-04-06T10:06:11;17.08;;;7.35;;
40847;SDS011;26570;50.962;5.340;2023-04-06T10:08:59;15.30;;;7.03;;
40847;SDS011;26570;50.962;5.340;2023-04-06T10:11:46;12.73;;;7.13;;
40847;SDS011;26570;50.962;5.340;2023-04-06T10:15:00;10.90;;;5.93;;
40847;SDS011;26570;50.962;5.340;2023-04-06T10:18:08;13.80;;;8.27;;
40847;SDS011;26570;50.962;5.340;2023-04-06T10:21:01;11.40;;;7.50;;
40847;SDS011;26570;50.962;5.340;2023-04-06T10:23:59;14.97;;;7.67;;
40847;SDS011;26570;50.962;5.340;2023-04-06T10:26:58;14.87;;;8.30;;
40847;SDS011;26570;50.962;5.340;2023-04-06T10:29:50;15.48;;;6.85;;
40847;SDS011;26570;50.962;5.340;2023-04-06T10:32:36;15.80;;;8.80;;
40847;SDS011;26570;50.962;5.340;2023-04-06T10:35:25;12.40;;;8.43;;
40847;SDS011;26570;50.962;5.340;2023-04-06T10:38:34;15.13;;;8.57;;
40847;SDS011;26570;50.962;5.340;2023-04-06T10:41:19;12.87;;;8.53;;
40847;SDS011;26570;50.962;5.340;2023-04-06T10:44:05;14.80;;;8.97;;
40847;SDS011;26570;50.962;5.340;2023-04-06T10:46:54;13.03;;;8.40;;
40847;SDS011;26570;50.962;5.340;2023-04-06T10:49:40;15.27;;;8.13;;
40847;SDS011;26570;50.962;5.340;2023-04-06T10:52:26;16.00;;;8.23;;
40847;SDS011;26570;50.962;5.340;2023-04-06T10:55:11;13.57;;;8.30;;
40847;SDS011;26570;50.962;5.340;2023-04-06T10:58:01;14.53;;;8.50;;
40847;SDS011;26570;50.962;5.340;2023-04-06T11:00:46;13.00;;;8.37;;
40847;SDS011;26570;50.962;5.340;2023-04-06T11:03:41;16.57;;;7.47;;
40847;SDS011;26570;50.962;5.340;2023-04-06T11:06:31;12.53;;;7.20;;
40847;SDS011;26570;50.962;5.340;2023-04-06T11:09:23;11.77;;;6.97;;
40847;SDS011;26570;50.962;5.340;2023-04-06T11:12:28;11.67;;;6.90;;
40847;SDS011;26570;50.962;5.340;2023-04-06T11:15:16;10.93;;;6.30;;
40847;SDS011;26570;50.962;5.340;2023-04-06T11:18:03;12.03;;;6.97;;
40847;SDS011;26570;50.962;5.340;2023-04-06T11:20:49;12.27;;;6.90;;
40847;SDS011;26570;50.962;5.340;2023-04-06T11:23:34;11.57;;;6.10;;
40847;SDS011;26570;50.962;5.340;2023-04-06T11:26:19;12.67;;;6.80;;
40847;SDS011;26570;50.962;5.340;2023-04-06T11:29:04;12.53;;;6.77;;
40847;SDS011;26570;50.962;5.340;2023-04-06T11:31:51;11.60;;;7.10;;
40847;SDS011;26570;50.962;5.340;2023-04-06T11:34:38;9.23;;;6.90;;
40847;SDS011;26570;50.962;5.340;2023-04-06T11:37:25;10.53;;;6.80;;
40847;SDS011;26570;50.962;5.340;2023-04-06T11:40:15;15.97;;;7.10;;
40847;SDS011;26570;50.962;5.340;2023-04-06T11:43:05;8.07;;;6.13;;
40847;SDS011;26570;50.962;5.340;2023-04-06T11:45:51;9.50;;;5.83;;
40847;SDS011;26570;50.962;5.340;2023-04-06T11:48:47;11.57;;;6.37;;
40847;SDS011;26570;50.962;5.340;2023-04-06T11:51:35;10.97;;;6.53;;
40847;SDS011;26570;50.962;5.340;2023-04-06T11:54:34;12.60;;;7.17;;
40847;SDS011;26570;50.962;5.340;2023-04-06T11:57:23;11.17;;;6.80;;
40847;SDS011;26570;50.962;5.340;2023-04-06T12:00:09;9.63;;;6.13;;
40847;SDS011;26570;50.962;5.340;2023-04-06T12:03:21;10.03;;;6.37;;
40847;SDS011;26570;50.962;5.340;2023-04-06T12:06:06;10.20;;;5.90;;
40847;SDS011;26570;50.962;5.340;2023-04-06T12:08:51;10.03;;;6.83;;
40847;SDS011;26570;50.962;5.340;2023-04-06T12:11:37;9.87;;;5.50;;
40847;SDS011;26570;50.962;5.340;2023-04-06T12:14:22;9.40;;;5.97;;
40847;SDS011;26570;50.962;5.340;2023-04-06T12:17:07;9.53;;;5.87;;
40847;SDS011;26570;50.962;5.340;2023-04-06T12:19:53;8.53;;;5.77;;
40847;SDS011;26570;50.962;5.340;2023-04-06T12:22:38;14.03;;;6.47;;
40847;SDS011;26570;50.962;5.340;2023-04-06T12:25:23;12.40;;;5.83;;
40847;SDS011;26570;50.962;5.340;2023-04-06T12:28:09;9.03;;;5.63;;
40847;SDS011;26570;50.962;5.340;2023-04-06T12:30:55;7.17;;;5.53;;
40847;SDS011;26570;50.962;5.340;2023-04-06T12:33:40;8.97;;;6.20;;
40847;SDS011;26570;50.962;5.340;2023-04-06T12:36:26;9.20;;;5.97;;
40847;SDS011;26570;50.962;5.340;2023-04-06T12:39:34;9.27;;;5.97;;
40847;SDS011;26570;50.962;5.340;2023-04-06T12:42:19;10.30;;;6.07;;
40847;SDS011;26570;50.962;5.340;2023-04-06T12:45:05;9.10;;;7.00;;
40847;SDS011;26570;50.962;5.340;2023-04-06T12:47:50;12.23;;;6.97;;
40847;SDS011;26570;50.962;5.340;2023-04-06T12:50:35;10.80;;;7.60;;
40847;SDS011;26570;50.962;5.340;2023-04-06T12:53:20;8.70;;;6.17;;
40847;SDS011;26570;50.962;5.340;2023-04-06T12:56:12;9.53;;;6.67;;
40847;SDS011;26570;50.962;5.340;2023-04-06T12:58:59;12.27;;;7.25;;
40847;SDS011;26570;50.962;5.340;2023-04-06T13:01:45;11.23;;;7.37;;
40847;SDS011;26570;50.962;5.340;2023-04-06T13:04:30;9.20;;;7.13;;
40847;SDS011;26570;50.962;5.340;2023-04-06T13:07:16;11.03;;;7.83;;
40847;SDS011;26570;50.962;5.340;2023-04-06T13:10:01;84.37;;;20.83;;
40847;SDS011;26570;50.962;5.340;2023-04-06T13:12:50;10.67;;;7.87;;
40847;SDS011;26570;50.962;5.340;2023-04-06T13:15:36;13.30;;;8.37;;
40847;SDS011;26570;50.962;5.340;2023-04-06T13:18:21;8.60;;;7.33;;
40847;SDS011;26570;50.962;5.340;2023-04-06T13:21:07;9.67;;;6.70;;
40847;SDS011;26570;50.962;5.340;2023-04-06T13:23:52;10.27;;;6.43;;
40847;SDS011;26570;50.962;5.340;2023-04-06T13:26:40;10.37;;;6.37;;
40847;SDS011;26570;50.962;5.340;2023-04-06T13:29:26;12.47;;;7.53;;
40847;SDS011;26570;50.962;5.340;2023-04-06T13:32:15;10.40;;;7.20;;
40847;SDS011;26570;50.962;5.340;2023-04-06T13:35:01;11.60;;;6.77;;
40847;SDS011;26570;50.962;5.340;2023-04-06T13:37:47;10.63;;;7.20;;
40847;SDS011;26570;50.962;5.340;2023-04-06T13:40:33;10.10;;;6.80;;
40847;SDS011;26570;50.962;5.340;2023-04-06T13:43:40;10.27;;;6.53;;
40847;SDS011;26570;50.962;5.340;2023-04-06T13:46:25;8.93;;;7.10;;
40847;SDS011;26570;50.962;5.340;2023-04-06T13:49:12;10.87;;;7.33;;
40847;SDS011;26570;50.962;5.340;2023-04-06T13:51:57;9.67;;;6.73;;
40847;SDS011;26570;50.962;5.340;2023-04-06T13:54:42;8.20;;;6.93;;
40847;SDS011;26570;50.962;5.340;2023-04-06T13:57:27;9.90;;;6.90;;
40847;SDS011;26570;50.962;5.340;2023-04-06T14:00:14;8.20;;;6.40;;
40847;SDS011;26570;50.962;5.340;2023-04-06T14:02:59;11.30;;;7.47;;
40847;SDS011;26570;50.962;5.340;2023-04-06T14:05:45;10.43;;;6.70;;
40847;SDS011;26570;50.962;5.340;2023-04-06T14:08:29;9.63;;;6.87;;
40847;SDS011;26570;50.962;5.340;2023-04-06T14:11:15;10.07;;;7.13;;
40847;SDS011;26570;50.962;5.340;2023-04-06T14:14:00;10.13;;;7.13;;
40847;SDS011;26570;50.962;5.340;2023-04-06T14:16:46;11.50;;;7.17;;
40847;SDS011;26570;50.962;5.340;2023-04-06T14:19:31;9.60;;;7.20;;
40847;SDS011;26570;50.962;5.340;2023-04-06T14:22:38;9.47;;;6.57;;
40847;SDS011;26570;50.962;5.340;2023-04-06T14:25:25;9.97;;;6.77;;
40847;SDS011;26570;50.962;5.340;2023-04-06T14:28:10;9.30;;;6.70;;
40847;SDS011;26570;50.962;5.340;2023-04-06T14:30:55;10.00;;;7.50;;
40847;SDS011;26570;50.962;5.340;2023-04-06T14:33:41;9.67;;;7.07;;
40847;SDS011;26570;50.962;5.340;2023-04-06T14:36:27;10.90;;;8.20;;
40847;SDS011;26570;50.962;5.340;2023-04-06T14:39:13;9.63;;;6.73;;
40847;SDS011;26570;50.962;5.340;2023-04-06T14:41:58;10.50;;;7.17;;
40847;SDS011;26570;50.962;5.340;2023-04-06T14:44:44;11.57;;;8.40;;
40847;SDS011;26570;50.962;5.340;2023-04-06T14:47:31;11.73;;;8.87;;
40847;SDS011;26570;50.962;5.340;2023-04-06T14:50:16;12.80;;;9.37;;
40847;SDS011;26570;50.962;5.340;2023-04-06T14:53:04;12.40;;;9.80;;
40847;SDS011;26570;50.962;5.340;2023-04-06T14:55:50;14.13;;;9.60;;
40847;SDS011;26570;50.962;5.340;2023-04-06T14:58:37;14.97;;;9.87;;
40847;SDS011;26570;50.962;5.340;2023-04-06T15:01:23;15.20;;;10.63;;
40847;SDS011;26570;50.962;5.340;2023-04-06T15:04:08;16.23;;;10.67;;
40847;SDS011;26570;50.962;5.340;2023-04-06T15:06:55;13.87;;;10.53;;
40847;SDS011;26570;50.962;5.340;2023-04-06T15:10:03;16.57;;;10.70;;
40847;SDS011;26570;50.962;5.340;2023-04-06T15:12:50;12.37;;;9.97;;
40847;SDS011;26570;50.962;5.340;2023-04-06T15:15:35;14.93;;;11.73;;
40847;SDS011;26570;50.962;5.340;2023-04-06T15:18:21;13.23;;;10.83;;
40847;SDS011;26570;50.962;5.340;2023-04-06T15:21:30;13.23;;;10.27;;
40847;SDS011;26570;50.962;5.340;2023-04-06T15:24:16;13.00;;;9.83;;
40847;SDS011;26570;50.962;5.340;2023-04-06T15:27:01;14.13;;;9.80;;
40847;SDS011;26570;50.962;5.340;2023-04-06T15:29:47;16.17;;;11.17;;
40847;SDS011;26570;50.962;5.340;2023-04-06T15:32:32;16.57;;;11.00;;
40847;SDS011;26570;50.962;5.340;2023-04-06T15:35:17;18.73;;;11.50;;
40847;SDS011;26570;50.962;5.340;2023-04-06T15:38:03;19.30;;;11.23;;
40847;SDS011;26570;50.962;5.340;2023-04-06T15:40:48;18.50;;;11.07;;
40847;SDS011;26570;50.962;5.340;2023-04-06T15:43:34;18.33;;;11.83;;
40847;SDS011;26570;50.962;5.340;2023-04-06T15:46:19;16.80;;;12.40;;
40847;SDS011;26570;50.962;5.340;2023-04-06T15:49:28;17.43;;;12.43;;
40847;SDS011;26570;50.962;5.340;2023-04-06T15:52:14;20.30;;;14.10;;
40847;SDS011;26570;50.962;5.340;2023-04-06T15:55:00;25.93;;;16.33;;
40847;SDS011;26570;50.962;5.340;2023-04-06T15:57:46;17.73;;;13.13;;
40847;SDS011;26570;50.962;5.340;2023-04-06T16:00:32;21.63;;;14.17;;
40847;SDS011;26570;50.962;5.340;2023-04-06T16:03:17;18.67;;;12.90;;
40847;SDS011;26570;50.962;5.340;2023-04-06T16:06:03;19.53;;;13.43;;
40847;SDS011;26570;50.962;5.340;2023-04-06T16:08:49;18.70;;;12.87;;
40847;SDS011;26570;50.962;5.340;2023-04-06T16:11:34;21.93;;;14.47;;
40847;SDS011;26570;50.962;5.340;2023-04-06T16:14:21;17.63;;;12.10;;
40847;SDS011;26570;50.962;5.340;2023-04-06T16:17:07;15.30;;;10.80;;
40847;SDS011;26570;50.962;5.340;2023-04-06T16:19:52;16.83;;;12.40;;
40847;SDS011;26570;50.962;5.340;2023-04-06T16:22:38;14.27;;;11.57;;
40847;SDS011;26570;50.962;5.340;2023-04-06T16:25:25;13.33;;;11.17;;
40847;SDS011;26570;50.962;5.340;2023-04-06T16:28:10;16.77;;;12.70;;
40847;SDS011;26570;50.962;5.340;2023-04-06T16:30:55;19.97;;;12.77;;
40847;SDS011;26570;50.962;5.340;2023-04-06T16:33:41;20.50;;;13.27;;
40847;SDS011;26570;50.962;5.340;2023-04-06T16:36:27;19.90;;;13.20;;
40847;SDS011;26570;50.962;5.340;2023-04-06T16:39:15;16.57;;;13.10;;
40847;SDS011;26570;50.962;5.340;2023-04-06T16:42:00;19.67;;;13.03;;
40847;SDS011;26570;50.962;5.340;2023-04-06T16:44:46;16.43;;;12.27;;